sensor_id;sensor_type;location;lat;lon;timestamp;pressure;altitude;pressure_sealevel;temperature;humidity
141;BME280;65;48.778;9.160;2024-02-16T00:02:40;98357.53;;;10.37;100.00
141;BME280;65;48.778;9.160;2024-02-16T00:05:29;98356.19;;;10.30;100.00
141;BME280;65;48.778;9.160;2024-02-16T00:08:15;98360.16;;;10.23;100.00
141;BME280;65;48.778;9.160;2024-02-16T00:11:02;98358.44;;;10.22;100.00
141;BME280;65;48.778;9.160;2024-02-16T00:13:48;98361.75;;;10.26;100.00
141;BME280;65;48.778;9.160;2024-02-16T00:16:34;98362.25;;;10.17;100.00
141;BME280;65;48.778;9.160;2024-02-16T00:19:19;98358.97;;;10.13;100.00
141;BME280;65;48.778;9.160;2024-02-16T00:22:05;98355.75;;;10.08;100.00
141;BME280;65;48.778;9.160;2024-02-16T00:24:52;98353.00;;;10.09;100.00
141;BME280;65;48.778;9.160;2024-02-16T00:27:38;98353.00;;;10.09;100.00
141;BME280;65;48.778;9.160;2024-02-16T00:30:24;98346.22;;;10.05;100.00
141;BME280;65;48.778;9.160;2024-02-16T00:33:10;98354.03;;;10.07;100.00
141;BME280;65;48.778;9.160;2024-02-16T00:35:55;98347.91;;;10.06;100.00
141;BME280;65;48.778;9.160;2024-02-16T00:38:41;98340.56;;;10.11;100.00
141;BME280;65;48.778;9.160;2024-02-16T00:41:27;98349.44;;;10.10;100.00
141;BME280;65;48.778;9.160;2024-02-16T00:44:13;98350.28;;;10.11;100.00
141;BME280;65;48.778;9.160;2024-02-16T00:46:58;98341.41;;;10.12;100.00
141;BME280;65;48.778;9.160;2024-02-16T00:49:44;98344.81;;;10.14;100.00
141;BME280;65;48.778;9.160;2024-02-16T00:52:30;98338.00;;;10.10;100.00
141;BME280;65;48.778;9.160;2024-02-16T00:55:15;98345.34;;;10.05;100.00
141;BME280;65;48.778;9.160;2024-02-16T00:58:01;98338.28;;;10.05;100.00
141;BME280;65;48.778;9.160;2024-02-16T01:00:47;98341.88;;;10.04;100.00
141;BME280;65;48.778;9.160;2024-02-16T01:03:32;98344.50;;;10.04;100.00
141;BME280;65;48.778;9.160;2024-02-16T01:06:18;98350.63;;;10.05;100.00
141;BME280;65;48.778;9.160;2024-02-16T01:09:04;98347.25;;;10.03;100.00
141;BME280;65;48.778;9.160;2024-02-16T01:11:50;98346.66;;;9.98;100.00
141;BME280;65;48.778;9.160;2024-02-16T01:14:36;98356.28;;;9.99;100.00
141;BME280;65;48.778;9.160;2024-02-16T01:17:22;98350.41;;;9.94;100.00
141;BME280;65;48.778;9.160;2024-02-16T01:20:08;98354.25;;;9.88;100.00
141;BME280;65;48.778;9.160;2024-02-16T01:22:58;98351.72;;;9.87;100.00
141;BME280;65;48.778;9.160;2024-02-16T01:25:43;98359.63;;;9.87;100.00
141;BME280;65;48.778;9.160;2024-02-16T01:28:29;98352.19;;;9.93;100.00
141;BME280;65;48.778;9.160;2024-02-16T01:31:15;98350.25;;;9.97;100.00
141;BME280;65;48.778;9.160;2024-02-16T01:34:01;98342.31;;;9.97;100.00
141;BME280;65;48.778;9.160;2024-02-16T01:36:46;98356.47;;;9.96;100.00
141;BME280;65;48.778;9.160;2024-02-16T01:39:32;98345.13;;;9.94;100.00
141;BME280;65;48.778;9.160;2024-02-16T01:42:18;98343.25;;;9.96;100.00
141;BME280;65;48.778;9.160;2024-02-16T01:45:04;98338.81;;;9.96;100.00
141;BME280;65;48.778;9.160;2024-02-16T01:47:50;98342.31;;;9.97;100.00
141;BME280;65;48.778;9.160;2024-02-16T01:50:37;98343.25;;;9.96;100.00
141;BME280;65;48.778;9.160;2024-02-16T01:53:23;98336.94;;;9.98;100.00
141;BME280;65;48.778;9.160;2024-02-16T01:56:09;98336.84;;;10.00;100.00
141;BME280;65;48.778;9.160;2024-02-16T01:58:55;98336.84;;;10.00;100.00
141;BME280;65;48.778;9.160;2024-02-16T02:01:41;98336.69;;;10.03;100.00
141;BME280;65;48.778;9.160;2024-02-16T02:04:27;98338.56;;;10.01;100.00
141;BME280;65;48.778;9.160;2024-02-16T02:07:14;98331.47;;;10.01;100.00
141;BME280;65;48.778;9.160;2024-02-16T02:09:59;98325.53;;;9.98;100.00
141;BME280;65;48.778;9.160;2024-02-16T02:12:45;98329.13;;;9.97;100.00
141;BME280;65;48.778;9.160;2024-02-16T02:15:31;98329.38;;;9.92;100.00
141;BME280;65;48.778;9.160;2024-02-16T02:18:17;98326.84;;;9.91;100.00
141;BME280;65;48.778;9.160;2024-02-16T02:21:03;98319.94;;;9.88;100.00
141;BME280;65;48.778;9.160;2024-02-16T02:23:49;98320.72;;;9.90;100.00
141;BME280;65;48.778;9.160;2024-02-16T02:26:35;98316.38;;;9.89;100.00
141;BME280;65;48.778;9.160;2024-02-16T02:29:21;98315.50;;;9.89;100.00
141;BME280;65;48.778;9.160;2024-02-16T02:32:07;98314.41;;;9.93;100.00
141;BME280;65;48.778;9.160;2024-02-16T02:34:53;98318.56;;;9.97;100.00
141;BME280;65;48.778;9.160;2024-02-16T02:37:39;98312.44;;;9.96;100.00
141;BME280;65;48.778;9.160;2024-02-16T02:40:24;98311.47;;;9.97;100.00
141;BME280;65;48.778;9.160;2024-02-16T02:43:11;98308.84;;;9.97;100.00
141;BME280;65;48.778;9.160;2024-02-16T02:45:56;98307.16;;;9.96;100.00
141;BME280;65;48.778;9.160;2024-02-16T02:48:43;98305.53;;;9.94;100.00
141;BME280;65;48.778;9.160;2024-02-16T02:51:30;98301.38;;;9.90;100.00
141;BME280;65;48.778;9.160;2024-02-16T02:54:15;98309.38;;;9.88;100.00
141;BME280;65;48.778;9.160;2024-02-16T02:57:03;98295.44;;;9.86;100.00
141;BME280;65;48.778;9.160;2024-02-16T02:59:49;98298.06;;;9.86;100.00
141;BME280;65;48.778;9.160;2024-02-16T03:02:34;98284.97;;;9.85;100.00
141;BME280;65;48.778;9.160;2024-02-16T03:05:21;98281.00;;;9.92;100.00
141;BME280;65;48.778;9.160;2024-02-16T03:08:07;98282.63;;;9.94;100.00
141;BME280;65;48.778;9.160;2024-02-16T03:10:53;98288.19;;;9.90;100.00
141;BME280;65;48.778;9.160;2024-02-16T03:13:39;98285.91;;;9.83;100.00
141;BME280;65;48.778;9.160;2024-02-16T03:16:25;98284.16;;;9.82;100.00
141;BME280;65;48.778;9.160;2024-02-16T03:19:11;98277.13;;;9.83;100.00
141;BME280;65;48.778;9.160;2024-02-16T03:21:56;98283.25;;;9.83;100.00
141;BME280;65;48.778;9.160;2024-02-16T03:24:43;98287.69;;;9.83;100.00
141;BME280;65;48.778;9.160;2024-02-16T03:27:30;98285.28;;;9.78;100.00
141;BME280;65;48.778;9.160;2024-02-16T03:30:16;98297.81;;;9.75;100.00
141;BME280;65;48.778;9.160;2024-02-16T03:33:02;98298.06;;;9.70;100.00
141;BME280;65;48.778;9.160;2024-02-16T03:35:47;98295.53;;;9.69;100.00
141;BME280;65;48.778;9.160;2024-02-16T03:38:34;98300.81;;;9.69;100.00
141;BME280;65;48.778;9.160;2024-02-16T03:41:22;98301.00;;;9.66;100.00
141;BME280;65;48.778;9.160;2024-02-16T03:44:09;98295.53;;;9.69;100.00
141;BME280;65;48.778;9.160;2024-02-16T03:46:54;98292.97;;;9.67;100.00
141;BME280;65;48.778;9.160;2024-02-16T03:49:40;98301.66;;;9.69;100.00
141;BME280;65;48.778;9.160;2024-02-16T03:52:26;98303.28;;;9.72;100.00
141;BME280;65;48.778;9.160;2024-02-16T03:55:11;98300.81;;;9.69;100.00
141;BME280;65;48.778;9.160;2024-02-16T03:57:57;98304.22;;;9.71;100.00
141;BME280;65;48.778;9.160;2024-02-16T04:00:43;98307.88;;;9.68;100.00
141;BME280;65;48.778;9.160;2024-02-16T04:03:29;98305.91;;;9.72;100.00
141;BME280;65;48.778;9.160;2024-02-16T04:06:14;98308.81;;;9.83;100.00
141;BME280;65;48.778;9.160;2024-02-16T04:09:00;98306.06;;;9.85;100.00
141;BME280;65;48.778;9.160;2024-02-16T04:11:46;98308.72;;;9.85;100.00
141;BME280;65;48.778;9.160;2024-02-16T04:14:32;98302.50;;;9.86;100.00
141;BME280;65;48.778;9.160;2024-02-16T04:17:19;98302.31;;;9.89;100.00
141;BME280;65;48.778;9.160;2024-02-16T04:20:05;98303.84;;;9.93;100.00
141;BME280;65;48.778;9.160;2024-02-16T04:22:52;98311.94;;;9.90;100.00
141;BME280;65;48.778;9.160;2024-02-16T04:25:38;98310.22;;;9.89;100.00
141;BME280;65;48.778;9.160;2024-02-16T04:28:24;98307.91;;;9.82;100.00
141;BME280;65;48.778;9.160;2024-02-16T04:31:10;98312.28;;;9.83;100.00
141;BME280;65;48.778;9.160;2024-02-16T04:33:55;98313.38;;;9.79;100.00
141;BME280;65;48.778;9.160;2024-02-16T04:36:41;98317.81;;;9.79;100.00
141;BME280;65;48.778;9.160;2024-02-16T04:39:27;98322.16;;;9.80;100.00
141;BME280;65;48.778;9.160;2024-02-16T04:42:16;98321.56;;;9.75;100.00
141;BME280;65;48.778;9.160;2024-02-16T04:45:02;98323.34;;;9.74;100.00
141;BME280;65;48.778;9.160;2024-02-16T04:47:48;98324.19;;;9.75;100.00
141;BME280;65;48.778;9.160;2024-02-16T04:50:34;98325.81;;;9.77;100.00
141;BME280;65;48.778;9.160;2024-02-16T04:53:20;98323.34;;;9.74;100.00
141;BME280;65;48.778;9.160;2024-02-16T04:56:06;98325.56;;;9.82;100.00
141;BME280;65;48.778;9.160;2024-02-16T04:58:52;98319.28;;;9.85;100.00
141;BME280;65;48.778;9.160;2024-02-16T05:01:37;98320.03;;;9.87;100.00
141;BME280;65;48.778;9.160;2024-02-16T05:04:23;98325.31;;;9.87;100.00
141;BME280;65;48.778;9.160;2024-02-16T05:07:09;98321.13;;;9.82;100.00
141;BME280;65;48.778;9.160;2024-02-16T05:09:55;98323.75;;;9.82;100.00
141;BME280;65;48.778;9.160;2024-02-16T05:12:43;98321.72;;;9.88;100.00
141;BME280;65;48.778;9.160;2024-02-16T05:15:29;98324.56;;;9.85;100.00
141;BME280;65;48.778;9.160;2024-02-16T05:18:15;98327.00;;;9.88;100.00
141;BME280;65;48.778;9.160;2024-02-16T05:21:00;98331.44;;;9.87;100.00
141;BME280;65;48.778;9.160;2024-02-16T05:23:46;98337.56;;;9.88;100.00
141;BME280;65;48.778;9.160;2024-02-16T05:26:32;98339.00;;;9.93;100.00
141;BME280;65;48.778;9.160;2024-02-16T05:29:18;98340.78;;;9.93;100.00
141;BME280;65;48.778;9.160;2024-02-16T05:32:04;98336.94;;;9.98;100.00
141;BME280;65;48.778;9.160;2024-02-16T05:34:50;98344.50;;;10.04;100.00
141;BME280;65;48.778;9.160;2024-02-16T05:37:35;98341.97;;;10.03;100.00
141;BME280;65;48.778;9.160;2024-02-16T05:40:21;98335.63;;;10.21;100.00
141;BME280;65;48.778;9.160;2024-02-16T05:43:09;98342.94;;;10.16;100.00
141;BME280;65;48.778;9.160;2024-02-16T05:45:55;98344.63;;;10.17;100.00
141;BME280;65;48.778;9.160;2024-02-16T05:48:41;98341.22;;;10.15;100.00
141;BME280;65;48.778;9.160;2024-02-16T05:51:27;98346.88;;;10.09;100.00
141;BME280;65;48.778;9.160;2024-02-16T05:54:13;98341.22;;;10.15;100.00
141;BME280;65;48.778;9.160;2024-02-16T05:56:59;98349.59;;;10.07;100.00
141;BME280;65;48.778;9.160;2024-02-16T05:59:45;98335.34;;;10.26;100.00
141;BME280;65;48.778;9.160;2024-02-16T06:02:31;98342.00;;;10.47;100.00
141;BME280;65;48.778;9.160;2024-02-16T06:05:17;98339.38;;;10.47;100.00
141;BME280;65;48.778;9.160;2024-02-16T06:08:03;98349.09;;;10.47;100.00
141;BME280;65;48.778;9.160;2024-02-16T06:10:49;98352.16;;;10.39;100.00
141;BME280;65;48.778;9.160;2024-02-16T06:13:39;98352.13;;;10.25;100.00
141;BME280;65;48.778;9.160;2024-02-16T06:16:25;98358.78;;;10.16;100.00
141;BME280;65;48.778;9.160;2024-02-16T06:19:10;98361.59;;;10.13;100.00
141;BME280;65;48.778;9.160;2024-02-16T06:21:56;98361.97;;;10.07;100.00
141;BME280;65;48.778;9.160;2024-02-16T06:24:42;98366.66;;;10.02;100.00
141;BME280;65;48.778;9.160;2024-02-16T06:27:28;98372.88;;;10.01;100.00
141;BME280;65;48.778;9.160;2024-02-16T06:30:13;98372.28;;;9.96;100.00
141;BME280;65;48.778;9.160;2024-02-16T06:32:59;98372.66;;;9.90;100.00
141;BME280;65;48.778;9.160;2024-02-16T06:35:46;98384.31;;;9.86;100.00
141;BME280;65;48.778;9.160;2024-02-16T06:38:33;98384.56;;;9.81;100.00
141;BME280;65;48.778;9.160;2024-02-16T06:41:19;98387.28;;;9.79;100.00
141;BME280;65;48.778;9.160;2024-02-16T06:44:05;98396.41;;;9.74;100.00
141;BME280;65;48.778;9.160;2024-02-16T06:46:51;98393.25;;;9.67;100.00
141;BME280;65;48.778;9.160;2024-02-16T06:49:37;98405.94;;;9.61;100.00
141;BME280;65;48.778;9.160;2024-02-16T06:52:22;98403.75;;;9.53;100.00
141;BME280;65;48.778;9.160;2024-02-16T06:55:08;98400.94;;;9.56;100.00
141;BME280;65;48.778;9.160;2024-02-16T06:57:54;98410.97;;;9.65;100.00
141;BME280;65;48.778;9.160;2024-02-16T07:00:40;98409.19;;;9.66;100.00
141;BME280;65;48.778;9.160;2024-02-16T07:03:27;98415.41;;;9.65;100.00
141;BME280;65;48.778;9.160;2024-02-16T07:06:13;98421.59;;;9.64;100.00
141;BME280;65;48.778;9.160;2024-02-16T07:08:59;98425.53;;;9.57;100.00
141;BME280;65;48.778;9.160;2024-02-16T07:11:45;98432.75;;;9.53;100.00
141;BME280;65;48.778;9.160;2024-02-16T07:14:32;98430.13;;;9.53;100.00
141;BME280;65;48.778;9.160;2024-02-16T07:17:17;98439.75;;;9.54;100.00
141;BME280;65;48.778;9.160;2024-02-16T07:20:03;98434.22;;;9.59;100.00
141;BME280;65;48.778;9.160;2024-02-16T07:22:49;98437.63;;;9.61;100.00
141;BME280;65;48.778;9.160;2024-02-16T07:25:37;98431.41;;;9.62;100.00
141;BME280;65;48.778;9.160;2024-02-16T07:28:23;98442.13;;;9.59;100.00
141;BME280;65;48.778;9.160;2024-02-16T07:31:09;98442.97;;;9.59;100.00
141;BME280;65;48.778;9.160;2024-02-16T07:33:56;98438.72;;;9.57;100.00
141;BME280;65;48.778;9.160;2024-02-16T07:36:42;98441.63;;;9.52;100.00
141;BME280;65;48.778;9.160;2024-02-16T07:39:28;98437.34;;;9.49;100.00
141;BME280;65;48.778;9.160;2024-02-16T07:42:14;98440.94;;;9.48;100.00
141;BME280;65;48.778;9.160;2024-02-16T07:45:00;98447.06;;;9.49;100.00
141;BME280;65;48.778;9.160;2024-02-16T07:47:46;98436.75;;;9.44;100.00
141;BME280;65;48.778;9.160;2024-02-16T07:50:32;98438.28;;;9.48;100.00
141;BME280;65;48.778;9.160;2024-02-16T07:53:18;98437.59;;;9.45;100.00
141;BME280;65;48.778;9.160;2024-02-16T07:56:04;98444.59;;;9.46;100.00
141;BME280;65;48.778;9.160;2024-02-16T07:58:50;98441.88;;;9.47;100.00
141;BME280;65;48.778;9.160;2024-02-16T08:01:36;98455.41;;;9.57;100.00
141;BME280;65;48.778;9.160;2024-02-16T08:04:22;98447.56;;;9.71;100.00
141;BME280;65;48.778;9.160;2024-02-16T08:07:07;98448.34;;;9.73;100.00
141;BME280;65;48.778;9.160;2024-02-16T08:09:54;98452.41;;;9.79;100.00
141;BME280;65;48.778;9.160;2024-02-16T08:12:40;98450.41;;;9.84;100.00
141;BME280;65;48.778;9.160;2024-02-16T08:15:26;98455.94;;;9.95;100.00
141;BME280;65;48.778;9.160;2024-02-16T08:18:12;98454.88;;;10.13;100.00
141;BME280;65;48.778;9.160;2024-02-16T08:20:58;98453.28;;;10.27;100.00
141;BME280;65;48.778;9.160;2024-02-16T08:23:44;98452.66;;;10.37;100.00
141;BME280;65;48.778;9.160;2024-02-16T08:26:33;98451.13;;;10.63;100.00
141;BME280;65;48.778;9.160;2024-02-16T08:29:19;98454.84;;;10.89;100.00
141;BME280;65;48.778;9.160;2024-02-16T08:32:06;98457.75;;;11.15;100.00
141;BME280;65;48.778;9.160;2024-02-16T08:34:52;98453.38;;;11.42;100.00
141;BME280;65;48.778;9.160;2024-02-16T08:37:38;98457.63;;;11.73;100.00
141;BME280;65;48.778;9.160;2024-02-16T08:40:24;98453.13;;;12.02;98.43
141;BME280;65;48.778;9.160;2024-02-16T08:43:13;98459.16;;;12.18;95.49
141;BME280;65;48.778;9.160;2024-02-16T08:45:59;98460.16;;;12.30;95.92
141;BME280;65;48.778;9.160;2024-02-16T08:48:45;98457.44;;;12.44;88.11
141;BME280;65;48.778;9.160;2024-02-16T08:51:34;98458.94;;;12.61;91.07
141;BME280;65;48.778;9.160;2024-02-16T08:54:20;98465.16;;;12.74;89.43
141;BME280;65;48.778;9.160;2024-02-16T08:57:05;98462.19;;;12.91;84.78
141;BME280;65;48.778;9.160;2024-02-16T08:59:51;98457.97;;;13.02;89.49
141;BME280;65;48.778;9.160;2024-02-16T09:02:37;98451.69;;;13.03;91.18
141;BME280;65;48.778;9.160;2024-02-16T09:05:23;98454.47;;;13.14;87.41
141;BME280;65;48.778;9.160;2024-02-16T09:08:09;98455.53;;;13.24;83.04
141;BME280;65;48.778;9.160;2024-02-16T09:10:55;98456.19;;;13.40;84.00
141;BME280;65;48.778;9.160;2024-02-16T09:13:41;98456.81;;;13.56;83.46
141;BME280;65;48.778;9.160;2024-02-16T09:16:26;98464.31;;;13.75;81.17
141;BME280;65;48.778;9.160;2024-02-16T09:19:12;98458.16;;;13.75;82.44
141;BME280;65;48.778;9.160;2024-02-16T09:21:59;98456.00;;;13.92;79.17
141;BME280;65;48.778;9.160;2024-02-16T09:24:48;98462.66;;;13.98;78.12
141;BME280;65;48.778;9.160;2024-02-16T09:59:29;98496.81;;;16.45;65.23
141;BME280;65;48.778;9.160;2024-02-16T10:02:16;98496.88;;;16.66;65.08
141;BME280;65;48.778;9.160;2024-02-16T10:07:58;98508.53;;;16.97;64.00
141;BME280;65;48.778;9.160;2024-02-16T10:10:43;98509.44;;;17.07;61.70
141;BME280;65;48.778;9.160;2024-02-16T10:13:32;98509.56;;;17.26;60.41
141;BME280;65;48.778;9.160;2024-02-16T10:16:19;98527.75;;;17.12;61.66
141;BME280;65;48.778;9.160;2024-02-16T10:19:06;98529.06;;;17.17;60.45
141;BME280;65;48.778;9.160;2024-02-16T10:21:52;98530.44;;;17.12;61.29
141;BME280;65;48.778;9.160;2024-02-16T10:24:38;98535.31;;;17.27;61.38
141;BME280;65;48.778;9.160;2024-02-16T10:27:24;98533.84;;;17.34;60.40
141;BME280;65;48.778;9.160;2024-02-16T10:30:15;98530.34;;;17.23;59.13
141;BME280;65;48.778;9.160;2024-02-16T10:33:02;98533.22;;;17.31;61.15
141;BME280;65;48.778;9.160;2024-02-16T10:35:50;98533.94;;;17.54;59.18
141;BME280;65;48.778;9.160;2024-02-16T10:38:43;98539.13;;;17.46;60.10
141;BME280;65;48.778;9.160;2024-02-16T10:41:33;98537.47;;;17.33;60.31
141;BME280;65;48.778;9.160;2024-02-16T10:44:20;98537.91;;;17.18;59.27
141;BME280;65;48.778;9.160;2024-02-16T10:47:06;98548.63;;;17.38;59.13
141;BME280;65;48.778;9.160;2024-02-16T10:49:52;98539.13;;;17.46;58.82
141;BME280;65;48.778;9.160;2024-02-16T10:52:42;98543.75;;;17.44;61.72
141;BME280;65;48.778;9.160;2024-02-16T10:55:30;98543.66;;;17.34;61.67
141;BME280;65;48.778;9.160;2024-02-16T11:02:00;98546.72;;;17.29;64.36
141;BME280;65;48.778;9.160;2024-02-16T11:04:48;98544.31;;;17.47;61.60
141;BME280;65;48.778;9.160;2024-02-16T11:07:35;98544.25;;;17.79;58.79
141;BME280;65;48.778;9.160;2024-02-16T11:10:24;98545.59;;;17.94;54.88
141;BME280;65;48.778;9.160;2024-02-16T11:13:10;98536.50;;;18.07;55.61
141;BME280;65;48.778;9.160;2024-02-16T11:15:58;98538.03;;;17.99;57.24
141;BME280;65;48.778;9.160;2024-02-16T11:18:46;98536.47;;;17.97;59.17
141;BME280;65;48.778;9.160;2024-02-16T11:21:34;98537.81;;;17.91;60.06
141;BME280;65;48.778;9.160;2024-02-16T11:24:29;98539.03;;;17.57;58.35
141;BME280;65;48.778;9.160;2024-02-16T11:27:16;98533.41;;;17.60;60.95
141;BME280;65;48.778;9.160;2024-02-16T11:30:05;98535.06;;;17.51;58.53
141;BME280;65;48.778;9.160;2024-02-16T11:32:51;98526.66;;;17.35;61.25
141;BME280;65;48.778;9.160;2024-02-16T11:35:39;98531.28;;;17.33;60.41
141;BME280;65;48.778;9.160;2024-02-16T11:38:30;98534.78;;;17.33;66.52
141;BME280;65;48.778;9.160;2024-02-16T11:41:16;98535.06;;;17.30;62.34
141;BME280;65;48.778;9.160;2024-02-16T11:44:02;98529.94;;;17.38;59.92
141;BME280;65;48.778;9.160;2024-02-16T11:46:48;98528.59;;;17.54;62.09
141;BME280;65;48.778;9.160;2024-02-16T11:49:35;98531.94;;;17.67;61.50
141;BME280;65;48.778;9.160;2024-02-16T11:52:21;98538.94;;;17.89;57.80
141;BME280;65;48.778;9.160;2024-02-16T11:55:08;98533.97;;;18.15;55.41
141;BME280;65;48.778;9.160;2024-02-16T11:57:54;98534.06;;;18.44;55.93
141;BME280;65;48.778;9.160;2024-02-16T12:00:42;98526.25;;;18.81;55.41
141;BME280;65;48.778;9.160;2024-02-16T12:03:27;98523.72;;;18.89;54.25
141;BME280;65;48.778;9.160;2024-02-16T12:06:20;98529.06;;;18.99;53.61
141;BME280;65;48.778;9.160;2024-02-16T12:09:09;98526.69;;;18.95;53.82
141;BME280;65;48.778;9.160;2024-02-16T12:11:55;98528.09;;;18.90;56.72
141;BME280;65;48.778;9.160;2024-02-16T12:14:50;98535.97;;;19.40;52.27
141;BME280;65;48.778;9.160;2024-02-16T12:17:36;98529.34;;;19.53;52.75
141;BME280;65;48.778;9.160;2024-02-16T12:20:22;98534.56;;;19.36;53.74
141;BME280;65;48.778;9.160;2024-02-16T12:23:12;98533.25;;;19.49;53.03
141;BME280;65;48.778;9.160;2024-02-16T12:25:59;98534.25;;;19.48;53.03
141;BME280;65;48.778;9.160;2024-02-16T12:28:48;98538.53;;;19.12;54.03
141;BME280;65;48.778;9.160;2024-02-16T12:31:34;98543.16;;;19.01;55.11
141;BME280;65;48.778;9.160;2024-02-16T12:34:23;98536.69;;;18.84;57.73
141;BME280;65;48.778;9.160;2024-02-16T12:37:09;98530.34;;;18.94;54.03
141;BME280;65;48.778;9.160;2024-02-16T12:39:56;98537.81;;;18.91;53.91
141;BME280;65;48.778;9.160;2024-02-16T12:42:42;98536.56;;;18.95;54.88
141;BME280;65;48.778;9.160;2024-02-16T12:45:28;98534.84;;;18.94;55.76
141;BME280;65;48.778;9.160;2024-02-16T12:48:14;98538.81;;;18.90;53.96
141;BME280;65;48.778;9.160;2024-02-16T12:51:00;98542.91;;;18.94;53.80
141;BME280;65;48.778;9.160;2024-02-16T12:53:51;98539.09;;;18.68;54.08
141;BME280;65;48.778;9.160;2024-02-16T12:56:41;98538.94;;;18.69;54.19
141;BME280;65;48.778;9.160;2024-02-16T12:59:27;98545.28;;;18.78;55.32
141;BME280;65;48.778;9.160;2024-02-16T13:02:13;98539.88;;;18.58;55.29
141;BME280;65;48.778;9.160;2024-02-16T13:04:59;98548.91;;;18.57;59.51
141;BME280;65;48.778;9.160;2024-02-16T13:07:45;98545.13;;;18.20;58.37
141;BME280;65;48.778;9.160;2024-02-16T13:10:30;98538.94;;;18.19;56.63
141;BME280;65;48.778;9.160;2024-02-16T13:13:17;98541.00;;;18.06;58.68
141;BME280;65;48.778;9.160;2024-02-16T13:16:03;98541.88;;;18.16;57.90
141;BME280;65;48.778;9.160;2024-02-16T13:18:49;98547.91;;;18.09;58.56
141;BME280;65;48.778;9.160;2024-02-16T13:21:35;98539.56;;;18.02;58.61
141;BME280;65;48.778;9.160;2024-02-16T13:24:21;98547.81;;;17.89;60.51
141;BME280;65;48.778;9.160;2024-02-16T13:27:10;98548.91;;;17.87;62.10
141;BME280;65;48.778;9.160;2024-02-16T13:29:55;98550.34;;;17.91;61.86
141;BME280;65;48.778;9.160;2024-02-16T13:32:41;98543.81;;;18.05;58.90
141;BME280;65;48.778;9.160;2024-02-16T13:35:27;98545.38;;;18.07;60.34
141;BME280;65;48.778;9.160;2024-02-16T13:38:14;98557.31;;;18.03;59.50
141;BME280;65;48.778;9.160;2024-02-16T13:41:03;98556.09;;;17.86;61.23
141;BME280;65;48.778;9.160;2024-02-16T13:43:50;98558.31;;;17.81;61.46
141;BME280;65;48.778;9.160;2024-02-16T13:46:37;98563.25;;;17.86;60.91
141;BME280;65;48.778;9.160;2024-02-16T13:49:35;98549.06;;;17.85;61.73
141;BME280;65;48.778;9.160;2024-02-16T13:52:21;98559.84;;;17.53;62.32
141;BME280;65;48.778;9.160;2024-02-16T13:55:08;98564.38;;;17.62;61.57
141;BME280;65;48.778;9.160;2024-02-16T13:57:54;98567.19;;;17.61;62.49
141;BME280;65;48.778;9.160;2024-02-16T14:00:40;98572.03;;;17.46;64.67
141;BME280;65;48.778;9.160;2024-02-16T14:03:26;98574.88;;;17.33;64.34
141;BME280;65;48.778;9.160;2024-02-16T14:06:12;98576.41;;;17.15;64.99
141;BME280;65;48.778;9.160;2024-02-16T14:09:01;98578.97;;;17.17;65.96
141;BME280;65;48.778;9.160;2024-02-16T14:11:47;98588.00;;;17.04;72.64
141;BME280;65;48.778;9.160;2024-02-16T14:14:33;98593.72;;;17.00;70.53
141;BME280;65;48.778;9.160;2024-02-16T14:17:19;98586.56;;;17.00;68.48
141;BME280;65;48.778;9.160;2024-02-16T14:20:05;98593.78;;;16.89;72.73
141;BME280;65;48.778;9.160;2024-02-16T14:22:51;98598.97;;;16.90;69.75
141;BME280;65;48.778;9.160;2024-02-16T14:25:37;98601.81;;;16.78;71.26
141;BME280;65;48.778;9.160;2024-02-16T14:28:23;98597.19;;;16.68;71.50
141;BME280;65;48.778;9.160;2024-02-16T14:31:09;98598.91;;;16.69;74.92
141;BME280;65;48.778;9.160;2024-02-16T14:34:05;98608.97;;;16.66;74.19
141;BME280;65;48.778;9.160;2024-02-16T14:36:51;98605.22;;;16.68;70.23
141;BME280;65;48.778;9.160;2024-02-16T14:39:40;98610.78;;;16.54;73.65
141;BME280;65;48.778;9.160;2024-02-16T14:42:26;98599.16;;;16.55;75.23
141;BME280;65;48.778;9.160;2024-02-16T14:45:13;98603.97;;;16.61;73.08
141;BME280;65;48.778;9.160;2024-02-16T14:48:06;98608.97;;;16.66;72.38
141;BME280;65;48.778;9.160;2024-02-16T14:50:52;98609.81;;;16.55;71.74
141;BME280;65;48.778;9.160;2024-02-16T14:53:38;98608.13;;;16.54;70.80
141;BME280;65;48.778;9.160;2024-02-16T14:56:24;98612.25;;;16.47;72.69
141;BME280;65;48.778;9.160;2024-02-16T14:59:10;98616.03;;;16.44;72.42
141;BME280;65;48.778;9.160;2024-02-16T15:02:36;98624.13;;;16.54;72.04
141;BME280;65;48.778;9.160;2024-02-16T15:05:22;98617.94;;;16.54;73.28
141;BME280;65;48.778;9.160;2024-02-16T15:08:08;98626.44;;;16.59;72.67
141;BME280;65;48.778;9.160;2024-02-16T15:10:55;98617.09;;;16.75;71.25
141;BME280;65;48.778;9.160;2024-02-16T15:13:41;98618.78;;;16.88;70.10
141;BME280;65;48.778;9.160;2024-02-16T15:16:28;98621.75;;;17.05;68.95
141;BME280;65;48.778;9.160;2024-02-16T15:19:14;98618.72;;;17.31;68.75
141;BME280;65;48.778;9.160;2024-02-16T15:22:00;98629.78;;;17.37;68.33
141;BME280;65;48.778;9.160;2024-02-16T15:24:45;98633.44;;;17.25;69.60
141;BME280;65;48.778;9.160;2024-02-16T15:27:31;98632.91;;;17.11;69.95
141;BME280;65;48.778;9.160;2024-02-16T15:30:17;98636.97;;;16.94;71.92
141;BME280;65;48.778;9.160;2024-02-16T15:33:03;98642.31;;;16.94;72.41
141;BME280;65;48.778;9.160;2024-02-16T15:35:49;98637.50;;;16.77;73.20
141;BME280;65;48.778;9.160;2024-02-16T15:38:35;98641.72;;;16.79;72.97
141;BME280;65;48.778;9.160;2024-02-16T15:41:20;98640.63;;;16.70;73.49
141;BME280;65;48.778;9.160;2024-02-16T15:44:06;98644.38;;;16.57;74.39
141;BME280;65;48.778;9.160;2024-02-16T15:46:53;98655.19;;;16.44;75.76
141;BME280;65;48.778;9.160;2024-02-16T15:49:39;98657.13;;;16.31;77.95
141;BME280;65;48.778;9.160;2024-02-16T15:52:25;98664.63;;;16.14;78.74
141;BME280;65;48.778;9.160;2024-02-16T15:55:11;98654.69;;;16.17;78.10
141;BME280;65;48.778;9.160;2024-02-16T15:57:59;98664.88;;;16.11;79.30
141;BME280;65;48.778;9.160;2024-02-16T16:00:45;98671.66;;;16.04;79.32
141;BME280;65;48.778;9.160;2024-02-16T16:03:37;98681.09;;;15.97;80.12
141;BME280;65;48.778;9.160;2024-02-16T16:06:24;98686.41;;;15.86;84.05
141;BME280;65;48.778;9.160;2024-02-16T16:09:10;98686.38;;;15.75;84.42
141;BME280;65;48.778;9.160;2024-02-16T16:11:56;98692.75;;;15.61;85.59
141;BME280;65;48.778;9.160;2024-02-16T16:14:42;98687.63;;;15.58;85.73
141;BME280;65;48.778;9.160;2024-02-16T16:17:28;98687.84;;;15.55;86.06
141;BME280;65;48.778;9.160;2024-02-16T16:20:17;98699.19;;;15.46;87.61
141;BME280;65;48.778;9.160;2024-02-16T16:23:03;98691.03;;;15.36;88.41